Time;durP1;ratioP1;P1;durP2;ratioP2;P2;SDS_P1;SDS_P2;PMS_P1;PMS_P2;Temp;Humidity;BMP_temperature;BMP_pressure;BME280_temperature;BME280_humidity;BME280_pressure;Samples;Min_cycle;Max_cycle;Signal;HPM_P1;HPM_P2
2022/12/04 00:01:24;;;;;;;;;12.50;8.00;;;;;3.67;100.00;101124.41;5030583;28;45241;-80
2022/12/04 00:03:56;;;;;;;;;30.25;20.25;;;;;3.53;100.00;101100.25;5036534;28;45524;-79
2022/12/04 00:06:23;;;;;;;;;33.00;29.00;;;;;3.66;100.00;101111.94;5032011;28;46261;-79
2022/12/04 00:08:48;;;;;;;;;33.25;28.75;;;;;3.73;100.00;101124.03;5031364;28;45278;-79
2022/12/04 00:11:16;;;;;;;;;28.00;28.00;;;;;3.67;100.00;101111.00;5034788;28;45654;-80
2022/12/04 00:13:42;;;;;;;;;30.75;28.00;;;;;3.73;100.00;101107.91;5027198;28;45485;-79
2022/12/04 00:16:11;;;;;;;;;32.50;26.25;;;;;3.72;100.00;101116.09;5030811;28;45462;-79
2022/12/04 00:18:37;;;;;;;;;30.00;25.25;;;;;3.81;100.00;101110.13;5042155;28;45266;-79
2022/12/04 00:21:04;;;;;;;;;35.00;28.00;;;;;3.79;100.00;101098.63;5035268;28;45322;-79
2022/12/04 00:23:29;;;;;;;;;36.75;27.50;;;;;3.84;100.00;101110.81;5041360;28;45299;-80
2022/12/04 00:26:03;;;;;;;;;27.50;25.50;;;;;3.86;100.00;101103.53;5030700;28;45615;-80
2022/12/04 00:28:29;;;;;;;;;33.25;26.75;;;;;3.86;100.00;101103.53;5037929;28;45436;-81
2022/12/04 00:30:54;;;;;;;;;39.75;30.00;;;;;3.78;100.00;101108.50;5032011;28;45473;-80
2022/12/04 00:33:21;;;;;;;;;28.50;26.00;;;;;3.81;100.00;101107.44;5037516;28;45283;-80
2022/12/04 00:35:46;;;;;;;;;38.25;29.75;;;;;3.77;100.00;101096.03;5030758;28;45673;-79
2022/12/04 00:38:11;;;;;;;;;36.00;28.00;;;;;3.71;100.00;101107.16;5037568;28;45326;-79
2022/12/04 00:40:37;;;;;;;;;35.25;33.25;;;;;3.81;100.00;101105.63;5033720;28;45461;-78
2022/12/04 00:43:02;;;;;;;;;29.75;21.50;;;;;3.79;100.00;101102.19;5039271;28;45450;-81
2022/12/04 00:45:28;;;;;;;;;34.00;27.25;;;;;3.80;100.00;101098.50;5033276;28;46392;-81
2022/12/04 00:47:54;;;;;;;;;27.75;26.75;;;;;3.88;100.00;101098.88;5031764;28;45362;-81
2022/12/04 00:50:19;;;;;;;;;29.75;29.50;;;;;3.80;100.00;101103.88;5031005;28;45380;-79
2022/12/04 00:52:44;;;;;;;;;41.25;29.50;;;;;3.82;100.00;101091.22;5033871;28;45492;-79
2022/12/04 00:55:10;;;;;;;;;27.50;23.50;;;;;3.80;100.00;101086.88;5032228;28;48299;-80
2022/12/04 00:57:35;;;;;;;;;32.75;29.00;;;;;3.83;100.00;101092.94;5033178;28;45437;-80
2022/12/04 01:00:00;;;;;;;;;32.00;23.50;;;;;3.83;100.00;101102.84;5034113;28;45299;-80
2022/12/04 01:02:26;;;;;;;;;39.00;26.50;;;;;3.79;100.00;101095.94;5046327;28;45663;-80
2022/12/04 01:04:51;;;;;;;;;30.50;26.25;;;;;3.78;100.00;101089.69;5032858;28;45563;-79
2022/12/04 01:07:16;;;;;;;;;34.25;25.25;;;;;3.78;100.00;101095.06;5041400;28;45954;-79
2022/12/04 01:09:42;;;;;;;;;30.50;22.75;;;;;3.77;100.00;101103.22;5040857;28;45312;-80
2022/12/04 01:12:07;;;;;;;;;43.00;27.75;;;;;3.80;100.00;101101.19;5041748;28;45564;-80
2022/12/04 01:14:33;;;;;;;;;29.00;21.75;;;;;3.86;100.00;101105.34;5031246;28;45502;-80
2022/12/04 01:16:58;;;;;;;;;34.50;27.50;;;;;3.72;100.00;101090.09;5034738;28;45183;-80
2022/12/04 01:19:23;;;;;;;;;36.00;26.00;;;;;3.63;100.00;101098.72;5040451;28;45283;-80
2022/12/04 01:21:49;;;;;;;;;32.50;27.50;;;;;3.67;100.00;101092.19;5033289;28;45149;-81
2022/12/04 01:24:14;;;;;;;;;30.75;29.00;;;;;3.74;100.00;101087.28;5038126;28;47512;-80
2022/12/04 01:26:39;;;;;;;;;40.25;30.25;;;;;3.68;100.00;101085.00;5045629;28;45437;-80
2022/12/04 01:29:05;;;;;;;;;35.50;24.75;;;;;3.69;100.00;101087.59;5041469;28;45341;-78
2022/12/04 01:31:30;;;;;;;;;33.75;29.25;;;;;3.69;100.00;101090.28;5035760;28;45517;-78
2022/12/04 01:33:56;;;;;;;;;34.25;27.75;;;;;3.76;100.00;101091.59;5031548;28;45497;-78
2022/12/04 01:36:24;;;;;;;;;27.75;25.25;;;;;3.73;100.00;101086.41;5032148;28;45398;-78
2022/12/04 01:38:50;;;;;;;;;29.50;26.25;;;;;3.68;100.00;101080.47;5034017;28;45445;-80
2022/12/04 01:41:19;;;;;;;;;37.50;26.25;;;;;3.58;100.00;101065.03;5033902;28;45433;-80
2022/12/04 01:44:05;;;;;;;;;33.25;30.75;;;;;3.67;100.00;101075.19;5035256;28;47294;-80
2022/12/04 01:46:30;;;;;;;;;25.75;24.25;;;;;3.67;100.00;101070.69;5046528;28;45461;-80
2022/12/04 01:48:55;;;;;;;;;43.00;32.50;;;;;3.62;100.00;101072.81;5030805;28;45317;-80
2022/12/04 01:51:23;;;;;;;;;40.25;30.25;;;;;3.64;100.00;101087.03;5030620;28;45455;-80
2022/12/04 01:53:55;;;;;;;;;42.00;36.75;;;;;3.62;100.00;101075.50;5033904;28;47284;-80
2022/12/04 01:56:27;;;;;;;;;31.00;25.75;;;;;3.68;100.00;101085.00;5031227;28;45459;-80
2022/12/04 01:58:55;;;;;;;;;35.75;28.25;;;;;3.69;100.00;101087.59;5035729;28;45294;-80
2022/12/04 02:01:21;;;;;;;;;42.50;31.50;;;;;3.68;100.00;101080.47;5033654;28;45395;-80
2022/12/04 02:03:48;;;;;;;;;37.00;29.00;;;;;3.72;100.00;101095.47;5034592;28;47046;-79
2022/12/04 02:06:13;;;;;;;;;33.25;29.00;;;;;3.74;100.00;101085.47;5045049;28;46068;-80
2022/12/04 02:08:38;;;;;;;;;38.25;28.25;;;;;3.74;100.00;101089.97;5028913;28;45248;-80
2022/12/04 02:11:34;;;;;;;;;35.50;31.25;;;;;3.68;100.00;101091.22;5035746;28;45317;-79
2022/12/04 02:14:31;;;;;;;;;37.25;28.25;;;;;3.65;100.00;101096.81;5039753;28;46355;-80
2022/12/04 02:17:19;;;;;;;;;37.50;26.00;;;;;3.67;100.00;101100.25;5035620;28;45540;-80
2022/12/04 02:20:25;;;;;;;;;33.25;28.00;;;;;3.68;100.00;101079.63;5037109;28;45558;-80
2022/12/04 02:23:05;;;;;;;;;37.75;28.50;;;;;3.69;100.00;101087.59;5042024;28;45456;-80
2022/12/04 02:25:45;;;;;;;;;47.50;32.00;;;;;3.69;100.00;101082.22;5033103;28;45558;-80
2022/12/04 02:28:17;;;;;;;;;45.75;35.50;;;;;3.74;100.00;101087.28;5040808;28;45460;-80
2022/12/04 02:30:44;;;;;;;;;37.00;29.25;;;;;3.63;100.00;101074.53;5029840;28;45489;-80
2022/12/04 02:33:25;;;;;;;;;38.50;29.50;;;;;3.65;100.00;101083.38;5041151;28;45462;-80
2022/12/04 02:36:00;;;;;;;;;31.50;30.00;;;;;3.67;100.00;101088.63;5031121;28;46681;-80
2022/12/04 02:38:35;;;;;;;;;39.75;29.25;;;;;3.72;100.00;101082.03;5040236;28;45374;-80
2022/12/04 02:41:08;;;;;;;;;38.50;29.25;;;;;3.68;100.00;101077.78;5031636;28;45644;-80
2022/12/04 02:43:38;;;;;;;;;42.75;36.75;;;;;3.51;100.00;101078.84;5036426;28;45307;-80
2022/12/04 02:46:15;;;;;;;;;31.00;31.00;;;;;3.58;100.00;101087.38;5036494;28;45834;-80
2022/12/04 02:48:46;;;;;;;;;37.25;28.50;;;;;3.59;100.00;101072.97;5040211;28;45592;-80
2022/12/04 02:51:14;;;;;;;;;38.00;37.00;;;;;3.65;100.00;101077.13;5034216;28;45551;-80
2022/12/04 02:53:46;;;;;;;;;42.00;33.50;;;;;3.71;100.00;101082.13;5037054;28;45488;-80
2022/12/04 02:56:15;;;;;;;;;39.75;33.00;;;;;3.75;100.00;101084.50;5035378;28;45477;-79
2022/12/04 02:58:49;;;;;;;;;39.50;32.00;;;;;3.74;100.00;101081.91;5038694;28;45386;-81
2022/12/04 03:01:19;;;;;;;;;31.00;26.75;;;;;3.77;100.00;101079.03;5036731;28;45562;-80
2022/12/04 03:03:58;;;;;;;;;47.25;33.50;;;;;3.72;100.00;101079.34;5030230;28;45193;-80
2022/12/04 03:06:26;;;;;;;;;42.00;34.00;;;;;3.78;100.00;101076.25;5040367;28;48303;-80
2022/12/04 03:09:05;;;;;;;;;50.75;34.75;;;;;3.84;100.00;101085.75;5043707;28;45434;-80
2022/12/04 03:11:34;;;;;;;;;43.00;34.25;;;;;3.77;100.00;101093.34;5039917;28;45259;-80
2022/12/04 03:14:09;;;;;;;;;39.75;34.00;;;;;3.75;100.00;101084.50;5036412;28;45393;-80
2022/12/04 03:16:39;;;;;;;;;46.00;38.25;;;;;3.79;100.00;101088.75;5034112;28;46490;-80
2022/12/04 03:19:14;;;;;;;;;45.25;35.25;;;;;3.67;100.00;101059.94;5041404;28;45489;-80
2022/12/04 03:21:46;;;;;;;;;41.25;37.25;;;;;3.75;100.00;101080.94;5030547;28;45407;-80
2022/12/04 03:24:18;;;;;;;;;41.00;30.75;;;;;3.74;100.00;101065.78;5030566;28;45366;-79
2022/12/04 03:26:54;;;;;;;;;39.50;30.75;;;;;3.70;100.00;101062.44;5033352;28;46335;-79
2022/12/04 03:29:26;;;;;;;;;38.25;31.50;;;;;3.78;100.00;101072.72;5036680;28;45341;-79
2022/12/04 03:32:13;;;;;;;;;32.00;26.25;;;;;3.74;100.00;101055.03;5038869;28;45232;-79
2022/12/04 03:34:56;;;;;;;;;50.75;39.00;;;;;3.82;100.00;101067.03;5037623;28;45477;-79
2022/12/04 03:37:29;;;;;;;;;49.50;36.75;;;;;3.83;100.00;101058.00;5028092;28;45543;-78
2022/12/04 03:40:01;;;;;;;;;55.25;39.00;;;;;3.82;100.00;101053.59;5041623;28;45420;-80
2022/12/04 03:42:36;;;;;;;;;38.25;30.25;;;;;3.76;100.00;101054.00;5039658;28;45405;-78
2022/12/04 03:45:19;;;;;;;;;46.50;35.00;;;;;3.81;100.00;101062.59;5041551;28;45441;-79
2022/12/04 03:48:02;;;;;;;;;51.00;35.75;;;;;3.87;100.00;101067.59;5032624;28;45444;-78
2022/12/04 03:50:39;;;;;;;;;43.75;36.25;;;;;3.90;100.00;101056.66;5034123;28;46064;-78
2022/12/04 03:53:51;;;;;;;;;38.75;35.00;;;;;3.92;100.00;101053.88;5031919;28;45466;-78
2022/12/04 03:56:31;;;;;;;;;43.25;38.25;;;;;3.88;100.00;101046.94;5029293;28;45386;-78
2022/12/04 03:59:08;;;;;;;;;42.25;37.00;;;;;3.91;100.00;101041.38;5034768;28;46216;-80
2022/12/04 04:01:40;;;;;;;;;38.50;33.75;;;;;3.90;100.00;101045.91;5030688;28;45382;-80
2022/12/04 04:04:12;;;;;;;;;51.00;33.75;;;;;3.83;100.00;101028.44;5031600;28;45426;-78
2022/12/04 04:06:47;;;;;;;;;49.00;42.00;;;;;3.84;100.00;101024.81;5033771;28;45429;-79
2022/12/04 04:09:21;;;;;;;;;38.50;33.75;;;;;3.87;100.00;101021.91;5043008;28;45427;-79
2022/12/04 04:12:07;;;;;;;;;48.25;37.50;;;;;3.87;100.00;101013.00;5041543;28;45275;-79
2022/12/04 04:25:57;;;;;;;;;47.25;37.75;;;;;3.82;100.00;100978.34;5031668;28;45437;-79
2022/12/04 04:28:37;;;;;;;;;42.25;36.75;;;;;3.81;100.00;100971.22;5037718;28;45485;-79
2022/12/04 04:31:24;;;;;;;;;39.50;31.50;;;;;3.81;100.00;100976.59;5034596;28;46591;-78
2022/12/04 04:34:24;;;;;;;;;43.75;34.00;;;;;3.87;100.00;100973.50;5034997;28;45587;-79
2022/12/04 04:37:10;;;;;;;;;52.25;40.00;;;;;3.87;100.00;100976.19;5036318;28;45374;-79
2022/12/04 04:39:45;;;;;;;;;46.50;36.50;;;;;3.84;100.00;100987.16;5039903;28;45263;-79
2022/12/04 04:42:28;;;;;;;;;43.25;33.75;;;;;3.76;100.00;100984.13;5028425;28;45429;-79
2022/12/04 04:45:03;;;;;;;;;43.75;36.00;;;;;3.67;100.00;100995.44;5040631;28;45788;-78
2022/12/04 04:47:42;;;;;;;;;38.00;30.25;;;;;3.79;100.00;101000.06;5034041;28;45466;-79
2022/12/04 04:50:10;;;;;;;;;57.25;37.75;;;;;3.83;100.00;100993.50;5029798;28;45153;-78
2022/12/04 04:52:39;;;;;;;;;44.75;38.00;;;;;3.80;100.00;100980.25;5043398;28;46987;-79
2022/12/04 04:55:05;;;;;;;;;49.00;38.75;;;;;3.82;100.00;100990.91;5028004;28;45258;-80
2022/12/04 04:57:37;;;;;;;;;49.00;39.25;;;;;3.83;100.00;100985.44;5032119;28;45230;-79
2022/12/04 05:00:14;;;;;;;;;48.75;35.75;;;;;3.90;100.00;100986.75;5030547;28;45637;-79
2022/12/04 05:02:39;;;;;;;;;40.50;34.25;;;;;3.89;100.00;100993.09;5024627;28;46708;-79
2022/12/04 05:05:06;;;;;;;;;41.25;34.50;;;;;3.95;100.00;100993.66;5031859;28;45182;-79
2022/12/04 05:07:31;;;;;;;;;48.25;37.00;;;;;3.95;100.00;100993.66;5036606;28;45331;-79
2022/12/04 05:09:56;;;;;;;;;52.50;41.75;;;;;3.90;100.00;100997.53;5024262;28;45489;-79
2022/12/04 05:12:22;;;;;;;;;50.25;38.00;;;;;3.89;100.00;100995.78;5031559;28;46365;-79
2022/12/04 05:14:47;;;;;;;;;50.50;39.00;;;;;3.89;100.00;100995.78;5029019;28;45237;-79
2022/12/04 05:17:13;;;;;;;;;46.75;39.50;;;;;3.89;100.00;100994.91;5041006;28;45441;-79
2022/12/04 05:19:57;;;;;;;;;38.25;34.00;;;;;3.92;100.00;101000.97;5039696;28;45541;-79
2022/12/04 05:22:30;;;;;;;;;50.25;33.75;;;;;3.99;100.00;101008.63;5032512;28;45734;-79
2022/12/04 05:24:56;;;;;;;;;51.75;29.00;;;;;3.95;100.00;101004.41;5028261;28;45247;-78
2022/12/04 05:27:22;;;;;;;;;53.00;39.75;;;;;3.95;100.00;100999.03;5033458;28;45350;-79
2022/12/04 05:29:48;;;;;;;;;55.00;40.25;;;;;3.84;100.00;100992.53;5029153;28;45472;-79
2022/12/04 05:32:13;;;;;;;;;48.25;38.50;;;;;3.80;100.00;100990.13;5035846;28;47135;-76
2022/12/04 05:34:39;;;;;;;;;29.00;28.00;;;;;3.89;100.00;101000.31;5031035;28;45733;-78
2022/12/04 05:37:04;;;;;;;;;41.00;31.25;;;;;3.86;100.00;101001.38;5025064;28;45475;-79
2022/12/04 05:39:30;;;;;;;;;41.00;34.50;;;;;3.92;100.00;101000.97;5037390;28;45457;-78
2022/12/04 05:41:55;;;;;;;;;47.50;33.50;;;;;4.00;100.00;100996.94;5028971;28;46709;-78
2022/12/04 05:44:20;;;;;;;;;58.50;37.50;;;;;3.96;100.00;100995.38;5038025;28;45397;-79
2022/12/04 05:46:47;;;;;;;;;47.75;38.00;;;;;4.01;100.00;101015.66;5030496;28;45435;-78
2022/12/04 05:49:12;;;;;;;;;56.75;41.50;;;;;4.01;100.00;101025.53;5033677;28;45501;-78
2022/12/04 05:51:38;;;;;;;;;44.00;37.75;;;;;3.99;100.00;101022.94;5045360;28;47216;-77
2022/12/04 05:54:03;;;;;;;;;46.75;35.75;;;;;4.01;100.00;101020.16;5037058;28;45442;-79
2022/12/04 05:56:28;;;;;;;;;51.75;39.50;;;;;4.10;100.00;101032.97;5044223;28;45690;-79
2022/12/04 05:58:54;;;;;;;;;45.25;34.75;;;;;4.17;100.00;101037.00;5045023;28;45354;-79
2022/12/04 06:01:22;;;;;;;;;49.00;41.25;;;;;4.17;100.00;101042.38;5036498;28;45502;-79
2022/12/04 06:03:48;;;;;;;;;40.25;34.00;;;;;4.09;100.00;101034.81;5031508;28;45457;-79
2022/12/04 06:06:18;;;;;;;;;51.75;37.00;;;;;4.13;100.00;101051.63;5039438;28;45533;-79
2022/12/04 06:08:43;;;;;;;;;43.50;36.50;;;;;4.13;100.00;101048.94;5043020;28;45498;-79
2022/12/04 06:11:14;;;;;;;;;41.00;35.75;;;;;4.13;100.00;101057.00;5038301;28;46833;-79
2022/12/04 06:13:41;;;;;;;;;48.50;39.75;;;;;4.05;100.00;101046.72;5043740;28;45823;-79
2022/12/04 06:16:18;;;;;;;;;40.75;33.75;;;;;4.13;100.00;101052.47;5031537;28;45369;-80
2022/12/04 06:18:43;;;;;;;;;45.75;35.00;;;;;4.08;100.00;101053.75;5039475;28;45426;-79
2022/12/04 06:21:09;;;;;;;;;47.75;37.75;;;;;3.99;100.00;101054.34;5038090;28;45451;-79
2022/12/04 06:23:35;;;;;;;;;55.00;42.50;;;;;3.97;100.00;101043.69;5041229;28;45161;-78
2022/12/04 06:26:05;;;;;;;;;48.50;35.50;;;;;3.84;100.00;101032.88;5032042;28;45435;-79
2022/12/04 06:28:31;;;;;;;;;38.00;34.50;;;;;3.97;100.00;101045.50;5045212;28;45274;-78
2022/12/04 06:31:05;;;;;;;;;49.50;39.25;;;;;4.02;100.00;101038.03;5040631;28;45837;-79
2022/12/04 06:33:31;;;;;;;;;46.75;34.25;;;;;3.97;100.00;101022.16;5044981;28;45373;-78
2022/12/04 06:36:02;;;;;;;;;47.50;41.25;;;;;3.98;100.00;101020.34;5036927;28;45457;-79
2022/12/04 06:38:28;;;;;;;;;47.75;38.50;;;;;4.00;100.00;101023.81;5041137;28;45404;-79
2022/12/04 06:40:54;;;;;;;;;57.00;42.00;;;;;3.98;100.00;101028.41;5041293;28;45715;-79
2022/12/04 06:43:19;;;;;;;;;57.75;40.00;;;;;4.03;100.00;101039.72;5036851;28;45471;-79
2022/12/04 06:45:44;;;;;;;;;31.25;18.00;;;;;4.05;100.00;101037.81;5040212;28;45479;-79
2022/12/04 06:48:10;;;;;;;;;46.25;36.25;;;;;4.08;100.00;101038.47;5030839;28;45327;-79
2022/12/04 06:50:35;;;;;;;;;47.00;37.75;;;;;4.13;100.00;101057.00;5034243;28;46544;-79
2022/12/04 06:53:00;;;;;;;;;38.75;35.25;;;;;4.12;100.00;101044.50;5033085;28;45823;-79
2022/12/04 06:55:26;;;;;;;;;45.00;40.00;;;;;4.11;100.00;101054.41;5036227;28;45469;-79
2022/12/04 06:57:51;;;;;;;;;41.75;38.25;;;;;4.10;100.00;101063.41;5028663;28;45552;-79
2022/12/04 07:00:17;;;;;;;;;44.75;36.75;;;;;4.10;100.00;101051.81;5040102;28;48082;-79
2022/12/04 07:02:42;;;;;;;;;43.25;34.25;;;;;4.07;100.00;101062.78;5029974;28;45439;-79
2022/12/04 07:05:07;;;;;;;;;53.75;42.00;;;;;4.06;100.00;101058.34;5040608;28;45397;-79
2022/12/04 07:07:33;;;;;;;;;43.50;34.75;;;;;4.10;100.00;101057.19;5031792;28;45452;-79
2022/12/04 07:09:58;;;;;;;;;61.00;43.00;;;;;4.10;100.00;101043.72;5037667;28;53363;-79
2022/12/04 07:12:23;;;;;;;;;41.50;37.25;;;;;4.09;100.00;101050.09;5034945;28;45388;-79
2022/12/04 07:14:49;;;;;;;;;52.50;39.25;;;;;4.09;100.00;101067.06;5035208;28;45373;-79
2022/12/04 07:17:14;;;;;;;;;53.25;38.75;;;;;4.12;100.00;101057.94;5035517;28;45463;-78
2022/12/04 07:19:39;;;;;;;;;45.00;34.25;;;;;4.09;100.00;101060.84;5040320;28;45516;-79
2022/12/04 07:22:07;;;;;;;;;55.50;45.00;;;;;4.16;100.00;101067.56;5035951;28;45503;-79
2022/12/04 07:24:33;;;;;;;;;47.25;40.50;;;;;4.11;100.00;101058.91;5038634;28;45366;-79
2022/12/04 07:26:59;;;;;;;;;46.50;38.50;;;;;4.13;100.00;101062.38;5042023;28;45496;-78
2022/12/04 07:29:24;;;;;;;;;48.50;38.50;;;;;4.17;100.00;101075.50;5037681;28;45350;-79
2022/12/04 07:31:49;;;;;;;;;35.00;32.75;;;;;4.14;100.00;101062.28;5036066;28;46859;-80
2022/12/04 07:34:15;;;;;;;;;48.75;40.25;;;;;4.05;100.00;101048.56;5036358;28;45321;-79
2022/12/04 07:36:40;;;;;;;;;39.50;31.25;;;;;4.12;100.00;101066.88;5033777;28;45560;-79
2022/12/04 07:39:05;;;;;;;;;38.00;32.25;;;;;4.15;100.00;101072.06;5051888;28;46673;-79
2022/12/04 07:41:31;;;;;;;;;49.25;37.25;;;;;4.08;100.00;101043.00;5039126;28;46069;-81
2022/12/04 07:43:56;;;;;;;;;47.75;41.25;;;;;4.20;100.00;101063.69;5038250;28;45775;-81
2022/12/04 07:46:24;;;;;;;;;43.00;33.50;;;;;4.17;100.00;101054.00;5035846;28;45672;-78
2022/12/04 07:48:49;;;;;;;;;49.25;33.75;;;;;4.16;100.00;101057.66;5039601;28;47549;-80
2022/12/04 07:51:18;;;;;;;;;46.00;38.50;;;;;4.17;100.00;101061.19;5032508;28;45202;-79
2022/12/04 07:53:43;;;;;;;;;43.00;38.50;;;;;4.14;100.00;101058.72;5036332;28;45294;-80
2022/12/04 07:56:11;;;;;;;;;43.00;34.00;;;;;4.05;100.00;101049.44;5039771;28;45386;-79
2022/12/04 07:58:36;;;;;;;;;44.00;36.25;;;;;4.23;100.00;101055.44;5037563;28;47058;-80
2022/12/04 08:01:09;;;;;;;;;49.75;35.75;;;;;4.21;100.00;101035.84;5041112;28;45666;-80
2022/12/04 08:03:35;;;;;;;;;51.75;36.00;;;;;4.20;100.00;101021.53;5038871;28;45474;-80
2022/12/04 08:06:02;;;;;;;;;45.75;36.75;;;;;4.32;100.00;101054.81;5037214;28;45542;-80
2022/12/04 08:08:28;;;;;;;;;52.25;36.00;;;;;4.23;100.00;101042.00;5040680;28;47317;-80
2022/12/04 08:10:54;;;;;;;;;46.00;39.00;;;;;4.17;100.00;101037.00;5039022;28;45537;-80
2022/12/04 08:13:19;;;;;;;;;52.00;41.00;;;;;4.22;100.00;101040.25;5048315;28;46121;-79
2022/12/04 08:15:44;;;;;;;;;41.00;33.50;;;;;4.24;100.00;101055.31;5030867;28;45540;-79
2022/12/04 08:18:09;;;;;;;;;41.50;36.25;;;;;4.29;100.00;101058.59;5037327;28;45595;-79
2022/12/04 08:20:35;;;;;;;;;54.00;39.25;;;;;4.20;100.00;101042.19;5033361;28;45363;-79
2022/12/04 08:23:00;;;;;;;;;42.00;37.75;;;;;4.10;100.00;101024.91;5041120;28;45525;-80
2022/12/04 08:25:26;;;;;;;;;46.25;40.25;;;;;4.30;100.00;101048.69;5032530;28;45460;-80
2022/12/04 08:27:51;;;;;;;;;43.75;31.50;;;;;4.29;100.00;101042.44;5041250;28;45482;-80
2022/12/04 08:30:17;;;;;;;;;46.00;34.00;;;;;4.38;100.00;101049.06;5039791;28;45401;-80
2022/12/04 08:32:42;;;;;;;;;54.25;39.00;;;;;4.40;100.00;101046.25;5038735;28;45476;-80
2022/12/04 08:35:08;;;;;;;;;46.50;33.00;;;;;4.43;100.00;101051.44;5036746;28;45429;-80
2022/12/04 08:37:33;;;;;;;;;51.50;39.25;;;;;4.43;100.00;101048.75;5041353;28;46297;-80
2022/12/04 08:39:58;;;;;;;;;46.75;41.50;;;;;4.49;100.00;101059.09;5039899;28;45165;-80
2022/12/04 08:42:24;;;;;;;;;41.25;36.25;;;;;4.42;100.00;101050.56;5030047;28;45390;-80
2022/12/04 08:44:49;;;;;;;;;47.00;40.25;;;;;4.47;100.00;101061.00;5041349;28;45734;-78
2022/12/04 08:47:14;;;;;;;;;49.25;39.00;;;;;4.51;100.00;101062.53;5030935;28;46568;-79
2022/12/04 08:49:40;;;;;;;;;54.25;35.00;;;;;4.47;100.00;101061.88;5031408;28;45334;-79
2022/12/04 08:52:05;;;;;;;;;47.25;36.75;;;;;4.55;100.00;101069.44;5030285;28;45881;-79
2022/12/04 08:54:30;;;;;;;;;45.25;36.75;;;;;4.49;100.00;101065.34;5041408;28;45635;-79
2022/12/04 08:56:56;;;;;;;;;39.75;33.00;;;;;4.62;100.00;101078.81;5027542;28;46990;-79
2022/12/04 08:59:21;;;;;;;;;49.25;40.00;;;;;4.66;100.00;101075.84;5030209;28;45404;-79
2022/12/04 09:01:50;;;;;;;;;46.25;34.75;;;;;4.61;100.00;101080.66;5031114;28;45894;-79
2022/12/04 09:04:15;;;;;;;;;34.00;25.75;;;;;4.51;100.00;101063.41;5033913;28;45421;-79
2022/12/04 09:06:41;;;;;;;;;49.25;34.75;;;;;4.64;100.00;101072.38;5030280;28;47700;-79
2022/12/04 09:09:06;;;;;;;;;57.00;39.75;;;;;4.73;100.00;101084.38;5032015;28;45369;-78
2022/12/04 09:11:32;;;;;;;;;52.25;38.00;;;;;4.70;100.00;101080.03;5036357;28;45315;-79
2022/12/04 09:13:57;;;;;;;;;37.00;33.75;;;;;4.60;100.00;101067.31;5026475;28;45591;-79
2022/12/04 09:16:24;;;;;;;;;58.75;42.25;;;;;4.60;100.00;101068.16;5030681;28;46195;-79
2022/12/04 09:18:50;;;;;;;;;51.00;34.25;;;;;4.58;100.00;101072.81;5037165;28;45548;-79
2022/12/04 09:21:17;;;;;;;;;46.25;38.75;;;;;4.58;100.00;101055.78;5034645;28;45341;-79
2022/12/04 09:23:43;;;;;;;;;46.50;38.00;;;;;4.61;100.00;101069.88;5041733;28;45528;-79
2022/12/04 09:26:24;;;;;;;;;51.50;38.00;;;;;4.61;100.00;101069.03;5035804;28;45523;-79
2022/12/04 09:28:51;;;;;;;;;44.75;37.75;;;;;4.74;100.00;101069.09;5041057;28;45455;-79
2022/12/04 09:31:17;;;;;;;;;45.50;32.50;;;;;4.75;100.00;101068.13;5037818;28;45439;-79
2022/12/04 09:33:43;;;;;;;;;49.50;39.50;;;;;4.76;100.00;101061.75;5040277;28;45371;-78
2022/12/04 09:36:14;;;;;;;;;44.25;34.50;;;;;4.92;100.00;101057.03;5031859;28;45323;-79
2022/12/04 09:38:44;;;;;;;;;52.75;39.00;;;;;4.85;100.00;101047.66;5033261;28;45295;-79
2022/12/04 09:41:32;;;;;;;;;52.00;39.00;;;;;4.94;100.00;101061.38;5032090;28;45418;-78
2022/12/04 09:44:20;;;;;;;;;44.00;36.25;;;;;5.05;100.00;101061.47;5038172;28;45355;-79
2022/12/04 09:46:54;;;;;;;;;50.25;39.50;;;;;5.00;100.00;101065.47;5027838;28;46708;-80
2022/12/04 09:49:19;;;;;;;;;47.00;33.00;;;;;5.05;100.00;101079.47;5043371;28;45443;-79
2022/12/04 09:51:46;;;;;;;;;52.00;39.00;;;;;4.91;100.00;101074.16;5027513;28;45436;-80
2022/12/04 09:54:18;;;;;;;;;45.00;37.75;;;;;4.89;100.00;101070.75;5040588;28;45643;-79
2022/12/04 09:56:53;;;;;;;;;55.25;38.50;;;;;4.99;100.00;101080.75;5027448;28;46126;-80
2022/12/04 09:59:25;;;;;;;;;45.75;36.00;;;;;4.95;100.00;101059.53;5030876;28;45426;-80
2022/12/04 10:02:16;;;;;;;;;38.50;35.00;;;;;4.91;100.00;101077.72;5039709;28;45442;-80
2022/12/04 10:04:43;;;;;;;;;33.50;29.75;;;;;5.02;100.00;101080.56;5032930;28;45398;-80
2022/12/04 10:07:31;;;;;;;;;45.50;38.75;;;;;4.93;100.00;101069.56;5031863;28;45371;-80
2022/12/04 10:10:11;;;;;;;;;47.75;40.50;;;;;4.94;100.00;101064.06;5036318;28;45503;-80
2022/12/04 10:13:03;;;;;;;;;42.25;37.50;;;;;5.04;100.00;101061.63;5031694;28;45626;-80
2022/12/04 10:15:45;;;;;;;;;54.25;41.75;;;;;5.13;100.00;101054.72;5027488;28;45300;-81
2022/12/04 10:18:34;;;;;;;;;51.75;37.75;;;;;5.28;100.00;101059.03;5035570;28;45606;-80
2022/12/04 10:21:02;;;;;;;;;35.50;27.50;;;;;5.33;100.00;101057.72;5028134;28;45342;-80
2022/12/04 10:23:42;;;;;;;;;42.50;34.50;;;;;5.37;100.00;101058.41;5033693;28;45388;-81
2022/12/04 10:26:14;;;;;;;;;48.50;40.75;;;;;5.34;100.00;101050.50;5034795;28;45625;-80
2022/12/04 10:28:47;;;;;;;;;40.25;34.00;;;;;5.29;100.00;101050.84;5040860;28;45349;-80
2022/12/04 10:31:14;;;;;;;;;61.25;42.50;;;;;5.30;100.00;101057.97;5031664;28;47359;-80
2022/12/04 10:34:04;;;;;;;;;58.25;42.50;;;;;5.28;100.00;101054.50;5035466;28;45435;-80
2022/12/04 10:36:33;;;;;;;;;51.75;40.25;;;;;5.27;100.00;101052.78;5029657;28;45403;-80
2022/12/04 10:39:25;;;;;;;;;49.25;39.50;;;;;5.21;100.00;101042.44;5038565;28;45627;-80
2022/12/04 10:42:09;;;;;;;;;52.50;41.00;;;;;5.24;100.00;101036.84;5030972;28;46912;-80
2022/12/04 10:44:34;;;;;;;;;54.50;41.00;;;;;5.38;100.00;101028.66;5041528;28;45140;-80
2022/12/04 10:47:02;;;;;;;;;52.00;39.00;;;;;5.46;100.00;101031.66;5033074;28;45443;-80
2022/12/04 10:49:37;;;;;;;;;53.50;41.00;;;;;5.57;100.00;101038.97;5035568;28;45542;-80
2022/12/04 10:52:03;;;;;;;;;44.75;36.25;;;;;5.56;100.00;101031.84;5035372;28;45662;-80
2022/12/04 10:54:39;;;;;;;;;55.25;42.75;;;;;5.48;100.00;101040.47;5037635;28;45435;-80
2022/12/04 10:57:10;;;;;;;;;53.50;38.50;;;;;5.44;100.00;101039.00;5040577;28;45422;-80
2022/12/04 10:59:46;;;;;;;;;51.00;39.75;;;;;5.46;100.00;101038.88;5034469;28;46576;-80
2022/12/04 11:02:31;;;;;;;;;50.50;40.75;;;;;5.51;100.00;101043.94;5032814;28;45564;-79
2022/12/04 11:05:03;;;;;;;;;51.75;40.00;;;;;5.51;100.00;101044.81;5036082;28;45410;-78
2022/12/04 11:07:50;;;;;;;;;46.00;39.75;;;;;5.51;100.00;101043.94;5038464;28;45274;-79
2022/12/04 11:10:38;;;;;;;;;53.25;42.50;;;;;5.60;100.00;101038.78;5038056;28;45417;-80
2022/12/04 11:13:09;;;;;;;;;53.00;35.75;;;;;5.60;100.00;101043.28;5038687;28;45435;-80
2022/12/04 11:15:44;;;;;;;;;59.75;40.75;;;;;5.55;100.00;101043.63;5037042;28;45493;-80
2022/12/04 11:18:20;;;;;;;;;50.25;41.00;;;;;5.49;100.00;101046.75;5035554;28;45389;-80
2022/12/04 11:21:04;;;;;;;;;58.50;41.25;;;;;5.48;100.00;101043.19;5037923;28;48651;-79
2022/12/04 11:23:45;;;;;;;;;52.50;37.00;;;;;5.54;100.00;101033.81;5040763;28;45271;-79
2022/12/04 11:26:11;;;;;;;;;55.25;41.50;;;;;5.62;100.00;101038.66;5041118;28;45378;-79
2022/12/04 11:28:39;;;;;;;;;53.25;42.50;;;;;5.63;100.00;101030.44;5038552;28;45313;-79
2022/12/04 11:31:07;;;;;;;;;55.00;43.00;;;;;5.60;100.00;101035.22;5037987;28;46992;-79
2022/12/04 11:33:44;;;;;;;;;57.50;43.75;;;;;5.62;100.00;101035.97;5030588;28;45334;-80
2022/12/04 11:36:21;;;;;;;;;54.00;40.00;;;;;5.66;100.00;101037.47;5030150;28;45438;-82